sensor_id;sensor_type;location;lat;lon;timestamp;pressure;altitude;pressure_sealevel;temperature;humidity
56142;BME280;42018;48.588;10.836;2022-12-24T00:00:17;96259.22;;;10.41;86.58
56142;BME280;42018;48.588;10.836;2022-12-24T00:03:02;96271.94;;;10.39;86.62
56142;BME280;42018;48.588;10.836;2022-12-24T00:05:48;96268.56;;;10.33;85.37
56142;BME280;42018;48.588;10.836;2022-12-24T00:08:33;96269.09;;;10.30;85.80
56142;BME280;42018;48.588;10.836;2022-12-24T00:11:19;96271.22;;;10.23;85.16
56142;BME280;42018;48.588;10.836;2022-12-24T00:14:04;96269.94;;;10.25;84.25
56142;BME280;42018;48.588;10.836;2022-12-24T00:16:50;96272.03;;;10.28;83.63
56142;BME280;42018;48.588;10.836;2022-12-24T00:19:35;96276.81;;;10.26;83.45
56142;BME280;42018;48.588;10.836;2022-12-24T00:22:21;96281.63;;;10.09;82.83
56142;BME280;42018;48.588;10.836;2022-12-24T00:25:06;96278.16;;;10.14;82.84
56142;BME280;42018;48.588;10.836;2022-12-24T00:27:52;96289.00;;;10.17;82.37
56142;BME280;42018;48.588;10.836;2022-12-24T00:30:38;96294.28;;;10.17;82.54
56142;BME280;42018;48.588;10.836;2022-12-24T00:33:23;96289.28;;;10.16;82.34
56142;BME280;42018;48.588;10.836;2022-12-24T00:36:09;96284.56;;;10.07;82.29
56142;BME280;42018;48.588;10.836;2022-12-24T00:38:54;96294.09;;;10.08;82.41
56142;BME280;42018;48.588;10.836;2022-12-24T00:41:39;96298.09;;;10.01;82.42
56142;BME280;42018;48.588;10.836;2022-12-24T00:44:25;96302.84;;;9.99;82.12
56142;BME280;42018;48.588;10.836;2022-12-24T00:47:10;96297.34;;;9.90;81.81
56142;BME280;42018;48.588;10.836;2022-12-24T00:49:55;96307.09;;;10.00;81.28
56142;BME280;42018;48.588;10.836;2022-12-24T00:52:41;96311.63;;;9.94;81.37
56142;BME280;42018;48.588;10.836;2022-12-24T00:55:26;96316.38;;;9.97;80.98
56142;BME280;42018;48.588;10.836;2022-12-24T00:58:12;96319.56;;;9.94;80.32
56142;BME280;42018;48.588;10.836;2022-12-24T01:00:59;96316.13;;;9.89;79.75
56142;BME280;42018;48.588;10.836;2022-12-24T01:03:45;96312.16;;;9.96;78.92
56142;BME280;42018;48.588;10.836;2022-12-24T01:06:38;96318.59;;;9.70;79.53
56142;BME280;42018;48.588;10.836;2022-12-24T01:09:33;96318.88;;;9.68;79.45
56142;BME280;42018;48.588;10.836;2022-12-24T01:12:35;96312.75;;;9.73;79.53
56142;BME280;42018;48.588;10.836;2022-12-24T01:15:27;96321.25;;;9.65;79.53
56142;BME280;42018;48.588;10.836;2022-12-24T01:18:16;96313.81;;;9.67;79.43
56142;BME280;42018;48.588;10.836;2022-12-24T01:21:02;96319.13;;;9.72;79.35
56142;BME280;42018;48.588;10.836;2022-12-24T01:23:47;96322.25;;;9.74;79.25
56142;BME280;42018;48.588;10.836;2022-12-24T01:26:33;96338.41;;;9.72;79.24
56142;BME280;42018;48.588;10.836;2022-12-24T01:29:19;96352.47;;;9.68;79.80
56142;BME280;42018;48.588;10.836;2022-12-24T01:32:04;96352.41;;;9.83;80.16
56142;BME280;42018;48.588;10.836;2022-12-24T01:34:50;96361.94;;;9.89;80.17
56142;BME280;42018;48.588;10.836;2022-12-24T01:37:35;96358.78;;;9.77;80.68
56142;BME280;42018;48.588;10.836;2022-12-24T01:40:21;96367.25;;;9.74;81.28
56142;BME280;42018;48.588;10.836;2022-12-24T01:43:28;96371.22;;;9.66;82.39
56142;BME280;42018;48.588;10.836;2022-12-24T01:46:26;96363.31;;;9.61;83.00
56142;BME280;42018;48.588;10.836;2022-12-24T01:49:14;96363.56;;;9.70;84.24
56142;BME280;42018;48.588;10.836;2022-12-24T01:52:04;96368.84;;;9.59;85.83
56142;BME280;42018;48.588;10.836;2022-12-24T01:54:55;96372.06;;;9.46;87.13
56142;BME280;42018;48.588;10.836;2022-12-24T01:57:50;96375.75;;;9.45;87.90
56142;BME280;42018;48.588;10.836;2022-12-24T02:00:37;96384.22;;;9.52;87.86
56142;BME280;42018;48.588;10.836;2022-12-24T02:03:23;96391.09;;;9.58;87.33
56142;BME280;42018;48.588;10.836;2022-12-24T02:06:09;96389.50;;;9.57;86.80
56142;BME280;42018;48.588;10.836;2022-12-24T02:08:59;96385.50;;;9.60;86.48
56142;BME280;42018;48.588;10.836;2022-12-24T02:11:45;96381.56;;;9.52;86.40
56142;BME280;42018;48.588;10.836;2022-12-24T02:14:32;96372.31;;;9.65;85.42
56142;BME280;42018;48.588;10.836;2022-12-24T02:17:29;96387.38;;;9.59;84.90
56142;BME280;42018;48.588;10.836;2022-12-24T02:30:32;96395.81;;;9.67;82.85
56142;BME280;42018;48.588;10.836;2022-12-24T02:33:26;96407.72;;;9.79;81.69
56142;BME280;42018;48.588;10.836;2022-12-24T02:39:04;96427.56;;;9.72;81.64
56142;BME280;42018;48.588;10.836;2022-12-24T02:41:52;96417.25;;;9.70;81.58
56142;BME280;42018;48.588;10.836;2022-12-24T02:45:00;96423.59;;;9.79;81.75
56142;BME280;42018;48.588;10.836;2022-12-24T02:47:48;96413.25;;;9.83;81.36
56142;BME280;42018;48.588;10.836;2022-12-24T02:50:35;96416.97;;;9.82;81.50
56142;BME280;42018;48.588;10.836;2022-12-24T02:53:20;96417.25;;;9.86;81.53
56142;BME280;42018;48.588;10.836;2022-12-24T02:59:11;96420.66;;;9.81;82.27
56142;BME280;42018;48.588;10.836;2022-12-24T03:10:54;96425.94;;;9.91;82.71
56142;BME280;42018;48.588;10.836;2022-12-24T03:13:42;96430.22;;;9.67;84.20
56142;BME280;42018;48.588;10.836;2022-12-24T03:16:28;96441.56;;;9.67;84.52
56142;BME280;42018;48.588;10.836;2022-12-24T03:19:14;96459.59;;;9.65;84.97
56142;BME280;42018;48.588;10.836;2022-12-24T03:22:03;96479.13;;;9.74;85.42
56142;BME280;42018;48.588;10.836;2022-12-24T03:24:52;96480.19;;;9.89;84.93
56142;BME280;42018;48.588;10.836;2022-12-24T03:27:38;96493.16;;;9.95;85.12
56142;BME280;42018;48.588;10.836;2022-12-24T03:30:25;96500.03;;;9.91;85.68
56142;BME280;42018;48.588;10.836;2022-12-24T03:33:14;96506.38;;;9.95;85.75
56142;BME280;42018;48.588;10.836;2022-12-24T03:36:00;96505.34;;;9.76;86.97
56142;BME280;42018;48.588;10.836;2022-12-24T03:38:45;96500.59;;;9.68;87.66
56142;BME280;42018;48.588;10.836;2022-12-24T03:41:31;96524.09;;;9.49;88.44
56142;BME280;42018;48.588;10.836;2022-12-24T03:44:16;96529.13;;;9.40;89.04
56142;BME280;42018;48.588;10.836;2022-12-24T03:47:01;96536.00;;;9.41;89.06
56142;BME280;42018;48.588;10.836;2022-12-24T03:49:47;96547.34;;;9.26;89.56
56142;BME280;42018;48.588;10.836;2022-12-24T03:52:32;96542.84;;;9.32;89.64
56142;BME280;42018;48.588;10.836;2022-12-24T03:55:17;96550.78;;;9.27;90.30
56142;BME280;42018;48.588;10.836;2022-12-24T03:58:03;96557.91;;;9.26;90.58
56142;BME280;42018;48.588;10.836;2022-12-24T04:00:48;96575.56;;;9.10;91.22
56142;BME280;42018;48.588;10.836;2022-12-24T04:03:34;96566.56;;;9.01;91.56
56142;BME280;42018;48.588;10.836;2022-12-24T04:06:19;96561.28;;;9.01;91.14
56142;BME280;42018;48.588;10.836;2022-12-24T04:09:05;96552.03;;;8.99;90.67
56142;BME280;42018;48.588;10.836;2022-12-24T04:11:50;96538.31;;;9.17;89.73
56142;BME280;42018;48.588;10.836;2022-12-24T04:14:35;96545.47;;;9.11;89.41
56142;BME280;42018;48.588;10.836;2022-12-24T04:17:21;96566.91;;;9.25;88.61
56142;BME280;42018;48.588;10.836;2022-12-24T04:20:06;96579.50;;;9.03;88.74
56142;BME280;42018;48.588;10.836;2022-12-24T04:22:52;96577.16;;;9.06;88.95
56142;BME280;42018;48.588;10.836;2022-12-24T04:25:38;96575.34;;;9.17;88.81
56142;BME280;42018;48.588;10.836;2022-12-24T04:28:23;96574.81;;;9.15;88.87
56142;BME280;42018;48.588;10.836;2022-12-24T04:31:14;96582.44;;;9.01;89.83
56142;BME280;42018;48.588;10.836;2022-12-24T04:34:00;96574.31;;;8.60;91.52
56142;BME280;42018;48.588;10.836;2022-12-24T04:36:45;96588.06;;;8.62;93.36
56142;BME280;42018;48.588;10.836;2022-12-24T04:39:31;96558.91;;;8.42;92.26
56142;BME280;42018;48.588;10.836;2022-12-24T04:42:16;96565.31;;;8.56;90.57
56142;BME280;42018;48.588;10.836;2022-12-24T04:45:01;96567.28;;;8.81;90.54
56142;BME280;42018;48.588;10.836;2022-12-24T04:47:47;96573.66;;;8.96;88.46
56142;BME280;42018;48.588;10.836;2022-12-24T04:50:32;96587.56;;;8.71;88.17
56142;BME280;42018;48.588;10.836;2022-12-24T04:53:17;96574.97;;;8.83;86.30
56142;BME280;42018;48.588;10.836;2022-12-24T04:56:06;96570.25;;;8.95;85.09
56142;BME280;42018;48.588;10.836;2022-12-24T04:58:51;96563.88;;;8.91;85.31
56142;BME280;42018;48.588;10.836;2022-12-24T05:01:37;96559.09;;;8.83;85.50
56142;BME280;42018;48.588;10.836;2022-12-24T05:04:22;96566.44;;;8.71;86.49
56142;BME280;42018;48.588;10.836;2022-12-24T05:07:07;96564.28;;;8.62;86.91
56142;BME280;42018;48.588;10.836;2022-12-24T05:09:53;96572.22;;;8.68;87.44
56142;BME280;42018;48.588;10.836;2022-12-24T05:12:38;96578.44;;;8.41;88.06
56142;BME280;42018;48.588;10.836;2022-12-24T05:15:24;96575.63;;;8.58;86.41
56142;BME280;42018;48.588;10.836;2022-12-24T05:18:09;96582.75;;;8.57;85.58
56142;BME280;42018;48.588;10.836;2022-12-24T05:20:54;96580.97;;;8.68;85.07
56142;BME280;42018;48.588;10.836;2022-12-24T05:23:40;96574.78;;;8.47;84.66
56142;BME280;42018;48.588;10.836;2022-12-24T05:26:48;96579.28;;;8.52;84.37
56142;BME280;42018;48.588;10.836;2022-12-24T05:29:34;96596.19;;;8.51;84.67
56142;BME280;42018;48.588;10.836;2022-12-24T05:32:19;96601.53;;;8.66;84.15
56142;BME280;42018;48.588;10.836;2022-12-24T05:35:05;96605.91;;;8.45;84.19
56142;BME280;42018;48.588;10.836;2022-12-24T05:37:50;96617.53;;;8.49;84.53
56142;BME280;42018;48.588;10.836;2022-12-24T05:40:35;96618.47;;;8.33;85.11
56142;BME280;42018;48.588;10.836;2022-12-24T05:43:21;96613.63;;;8.57;84.33
56142;BME280;42018;48.588;10.836;2022-12-24T05:46:09;96622.66;;;8.61;83.85
56142;BME280;42018;48.588;10.836;2022-12-24T05:48:54;96639.88;;;8.74;83.79
56142;BME280;42018;48.588;10.836;2022-12-24T05:51:40;96633.78;;;8.68;84.09
56142;BME280;42018;48.588;10.836;2022-12-24T05:54:25;96630.69;;;8.81;84.07
56142;BME280;42018;48.588;10.836;2022-12-24T05:57:11;96641.00;;;8.83;83.70
56142;BME280;42018;48.588;10.836;2022-12-24T05:59:57;96640.50;;;8.91;83.73
56142;BME280;42018;48.588;10.836;2022-12-24T06:02:42;96637.13;;;9.01;83.59
56142;BME280;42018;48.588;10.836;2022-12-24T06:05:28;96639.22;;;8.99;83.11
56142;BME280;42018;48.588;10.836;2022-12-24T06:08:13;96626.00;;;8.99;83.65
56142;BME280;42018;48.588;10.836;2022-12-24T06:11:00;96624.19;;;9.04;83.35
56142;BME280;42018;48.588;10.836;2022-12-24T06:13:46;96629.25;;;9.11;83.15
56142;BME280;42018;48.588;10.836;2022-12-24T06:16:31;96619.97;;;9.08;83.33
56142;BME280;42018;48.588;10.836;2022-12-24T06:19:19;96622.56;;;8.93;83.74
56142;BME280;42018;48.588;10.836;2022-12-24T06:22:05;96615.66;;;8.87;83.94
56142;BME280;42018;48.588;10.836;2022-12-24T06:24:50;96624.59;;;8.81;84.62
56142;BME280;42018;48.588;10.836;2022-12-24T06:27:36;96616.16;;;8.84;84.96
56142;BME280;42018;48.588;10.836;2022-12-24T06:30:21;96623.03;;;8.80;86.42
56142;BME280;42018;48.588;10.836;2022-12-24T06:33:09;96622.94;;;8.65;87.55
56142;BME280;42018;48.588;10.836;2022-12-24T06:35:55;96619.31;;;8.76;87.57
56142;BME280;42018;48.588;10.836;2022-12-24T06:38:40;96630.38;;;8.78;88.08
56142;BME280;42018;48.588;10.836;2022-12-24T06:41:25;96631.22;;;8.83;88.16
56142;BME280;42018;48.588;10.836;2022-12-24T06:44:11;96630.94;;;8.80;89.03
56142;BME280;42018;48.588;10.836;2022-12-24T06:46:56;96634.66;;;8.79;88.95
56142;BME280;42018;48.588;10.836;2022-12-24T06:49:41;96628.47;;;8.63;89.68
56142;BME280;42018;48.588;10.836;2022-12-24T06:52:27;96628.25;;;8.70;90.05
56142;BME280;42018;48.588;10.836;2022-12-24T06:55:12;96631.91;;;8.63;90.30
56142;BME280;42018;48.588;10.836;2022-12-24T06:57:58;96642.28;;;8.75;89.15
56142;BME280;42018;48.588;10.836;2022-12-24T07:00:43;96653.88;;;8.69;89.49
56142;BME280;42018;48.588;10.836;2022-12-24T07:03:29;96667.72;;;8.86;88.79
56142;BME280;42018;48.588;10.836;2022-12-24T07:06:27;96676.44;;;8.92;86.74
56142;BME280;42018;48.588;10.836;2022-12-24T07:09:13;96685.50;;;9.06;87.27
56142;BME280;42018;48.588;10.836;2022-12-24T07:11:58;96694.25;;;9.12;86.51
56142;BME280;42018;48.588;10.836;2022-12-24T07:14:44;96689.75;;;9.07;87.06
56142;BME280;42018;48.588;10.836;2022-12-24T07:17:29;96698.75;;;9.11;86.36
56142;BME280;42018;48.588;10.836;2022-12-24T07:20:15;96695.56;;;9.09;86.30
56142;BME280;42018;48.588;10.836;2022-12-24T07:23:00;96699.97;;;8.94;86.42
56142;BME280;42018;48.588;10.836;2022-12-24T07:25:46;96702.00;;;8.81;87.41
56142;BME280;42018;48.588;10.836;2022-12-24T07:28:31;96714.84;;;8.68;88.20
56142;BME280;42018;48.588;10.836;2022-12-24T07:31:17;96714.41;;;8.44;89.25
56142;BME280;42018;48.588;10.836;2022-12-24T07:34:02;96723.22;;;8.54;88.69
56142;BME280;42018;48.588;10.836;2022-12-24T07:36:48;96723.75;;;8.56;88.84
56142;BME280;42018;48.588;10.836;2022-12-24T07:39:33;96727.81;;;8.69;87.43
56142;BME280;42018;48.588;10.836;2022-12-24T07:42:19;96727.59;;;8.76;86.97
56142;BME280;42018;48.588;10.836;2022-12-24T07:45:04;96726.06;;;8.85;86.29
56142;BME280;42018;48.588;10.836;2022-12-24T07:47:50;96732.59;;;8.72;85.98
56142;BME280;42018;48.588;10.836;2022-12-24T07:50:38;96731.13;;;8.86;85.46
56142;BME280;42018;48.588;10.836;2022-12-24T07:53:38;96748.28;;;8.89;84.96
56142;BME280;42018;48.588;10.836;2022-12-24T07:56:23;96741.25;;;8.68;84.95
56142;BME280;42018;48.588;10.836;2022-12-24T07:59:12;96752.28;;;8.92;84.63
56142;BME280;42018;48.588;10.836;2022-12-24T08:01:58;96755.47;;;8.94;84.26
56142;BME280;42018;48.588;10.836;2022-12-24T08:04:44;96751.47;;;8.91;83.38
56142;BME280;42018;48.588;10.836;2022-12-24T08:07:29;96756.25;;;8.94;83.14
56142;BME280;42018;48.588;10.836;2022-12-24T08:10:14;96762.03;;;8.91;83.16
56142;BME280;42018;48.588;10.836;2022-12-24T08:13:00;96771.19;;;8.78;83.64
56142;BME280;42018;48.588;10.836;2022-12-24T08:15:52;96778.09;;;8.79;83.09
56142;BME280;42018;48.588;10.836;2022-12-24T08:18:40;96778.69;;;8.92;82.35
56142;BME280;42018;48.588;10.836;2022-12-24T08:21:31;96782.41;;;8.91;82.31
56142;BME280;42018;48.588;10.836;2022-12-24T08:24:19;96780.13;;;8.72;82.84
56142;BME280;42018;48.588;10.836;2022-12-24T08:27:12;96795.34;;;8.92;82.11
56142;BME280;42018;48.588;10.836;2022-12-24T08:29:57;96786.81;;;8.80;82.32
56142;BME280;42018;48.588;10.836;2022-12-24T08:32:46;96793.03;;;9.01;81.86
56142;BME280;42018;48.588;10.836;2022-12-24T08:35:31;96790.34;;;8.96;81.44
56142;BME280;42018;48.588;10.836;2022-12-24T08:38:17;96789.38;;;8.75;81.43
56142;BME280;42018;48.588;10.836;2022-12-24T08:41:05;96792.97;;;8.91;80.93
56142;BME280;42018;48.588;10.836;2022-12-24T08:43:51;96792.09;;;8.80;80.83
56142;BME280;42018;48.588;10.836;2022-12-24T08:46:37;96795.25;;;8.82;80.55
56142;BME280;42018;48.588;10.836;2022-12-24T08:49:22;96799.66;;;9.03;79.92
56142;BME280;42018;48.588;10.836;2022-12-24T08:52:08;96795.69;;;9.01;79.53
56142;BME280;42018;48.588;10.836;2022-12-24T08:54:53;96790.50;;;9.16;79.33
56142;BME280;42018;48.588;10.836;2022-12-24T08:57:39;96792.88;;;9.18;79.33
56142;BME280;42018;48.588;10.836;2022-12-24T09:00:25;96808.34;;;8.99;79.44
56142;BME280;42018;48.588;10.836;2022-12-24T09:03:13;96806.63;;;9.20;78.51
56142;BME280;42018;48.588;10.836;2022-12-24T09:06:02;96819.38;;;9.28;78.58
56142;BME280;42018;48.588;10.836;2022-12-24T09:08:48;96820.44;;;9.27;78.24
56142;BME280;42018;48.588;10.836;2022-12-24T09:11:39;96822.88;;;9.39;78.10
56142;BME280;42018;48.588;10.836;2022-12-24T09:14:24;96846.44;;;9.40;77.88
56142;BME280;42018;48.588;10.836;2022-12-24T09:17:10;96840.31;;;9.34;78.05
56142;BME280;42018;48.588;10.836;2022-12-24T09:19:59;96842.09;;;9.24;77.58
56142;BME280;42018;48.588;10.836;2022-12-24T09:22:44;96844.59;;;9.46;77.58
56142;BME280;42018;48.588;10.836;2022-12-24T09:25:30;96836.97;;;9.49;77.32
56142;BME280;42018;48.588;10.836;2022-12-24T09:28:15;96841.53;;;9.59;76.81
56142;BME280;42018;48.588;10.836;2022-12-24T09:31:03;96846.75;;;9.49;76.86
56142;BME280;42018;48.588;10.836;2022-12-24T09:33:49;96840.38;;;9.45;77.16
56142;BME280;42018;48.588;10.836;2022-12-24T09:36:35;96846.03;;;9.58;76.92
56142;BME280;42018;48.588;10.836;2022-12-24T09:39:21;96841.16;;;9.40;77.75
56142;BME280;42018;48.588;10.836;2022-12-24T09:45:32;96843.25;;;9.38;78.69
56142;BME280;42018;48.588;10.836;2022-12-24T09:48:21;96845.59;;;9.34;78.55
56142;BME280;42018;48.588;10.836;2022-12-24T09:54:25;96854.38;;;9.40;77.98
56142;BME280;42018;48.588;10.836;2022-12-24T09:57:27;96853.59;;;9.45;77.56
56142;BME280;42018;48.588;10.836;2022-12-24T10:00:23;96856.03;;;9.51;78.25
56142;BME280;42018;48.588;10.836;2022-12-24T10:03:18;96860.31;;;9.57;77.89
56142;BME280;42018;48.588;10.836;2022-12-24T10:21:10;96867.00;;;10.28;75.54
56142;BME280;42018;48.588;10.836;2022-12-24T10:29:55;96858.31;;;10.48;75.18
56142;BME280;42018;48.588;10.836;2022-12-24T10:32:43;96861.72;;;10.38;75.62
56142;BME280;42018;48.588;10.836;2022-12-24T10:35:34;96869.75;;;10.59;74.41
56142;BME280;42018;48.588;10.836;2022-12-24T10:38:21;96870.28;;;10.61;73.74
56142;BME280;42018;48.588;10.836;2022-12-24T10:41:06;96867.66;;;10.76;73.95
56142;BME280;42018;48.588;10.836;2022-12-24T10:43:53;96868.47;;;11.02;73.52
56142;BME280;42018;48.588;10.836;2022-12-24T10:46:39;96866.09;;;11.21;73.28
56142;BME280;42018;48.588;10.836;2022-12-24T10:49:32;96862.91;;;11.19;72.86
56142;BME280;42018;48.588;10.836;2022-12-24T10:52:27;96858.16;;;11.00;72.64
56142;BME280;42018;48.588;10.836;2022-12-24T10:58:20;96859.19;;;10.89;72.34
56142;BME280;42018;48.588;10.836;2022-12-24T11:01:05;96866.63;;;10.97;72.43
56142;BME280;42018;48.588;10.836;2022-12-24T11:04:00;96863.19;;;11.12;71.56
56142;BME280;42018;48.588;10.836;2022-12-24T11:07:02;96859.22;;;10.99;70.86
56142;BME280;42018;48.588;10.836;2022-12-24T11:09:59;96863.72;;;10.89;71.78
56142;BME280;42018;48.588;10.836;2022-12-24T11:12:46;96855.22;;;11.02;71.23
56142;BME280;42018;48.588;10.836;2022-12-24T11:15:33;96859.44;;;11.34;71.75
56142;BME280;42018;48.588;10.836;2022-12-24T11:18:19;96859.44;;;11.54;70.14
56142;BME280;42018;48.588;10.836;2022-12-24T11:21:04;96861.78;;;11.66;70.18
56142;BME280;42018;48.588;10.836;2022-12-24T11:23:56;96860.53;;;11.22;71.03
56142;BME280;42018;48.588;10.836;2022-12-24T11:26:43;96856.78;;;10.77;71.33
56142;BME280;42018;48.588;10.836;2022-12-24T11:29:29;96847.28;;;10.97;71.89
56142;BME280;42018;48.588;10.836;2022-12-24T11:32:20;96849.91;;;10.76;72.33
56142;BME280;42018;48.588;10.836;2022-12-24T11:35:07;96837.47;;;10.92;72.45
56142;BME280;42018;48.588;10.836;2022-12-24T11:40:47;96844.81;;;10.44;73.78
56142;BME280;42018;48.588;10.836;2022-12-24T11:43:46;96840.38;;;10.75;73.58
56142;BME280;42018;48.588;10.836;2022-12-24T11:46:43;96841.19;;;11.07;73.59
56142;BME280;42018;48.588;10.836;2022-12-24T11:49:31;96831.59;;;11.36;72.47
56142;BME280;42018;48.588;10.836;2022-12-24T11:52:21;96828.91;;;11.62;71.29
56142;BME280;42018;48.588;10.836;2022-12-24T11:55:27;96828.41;;;11.44;71.19
56142;BME280;42018;48.588;10.836;2022-12-24T11:58:50;96829.97;;;11.45;72.21
56142;BME280;42018;48.588;10.836;2022-12-24T12:01:53;96847.50;;;11.51;70.43
56142;BME280;42018;48.588;10.836;2022-12-24T12:04:41;96849.66;;;11.29;69.75
56142;BME280;42018;48.588;10.836;2022-12-24T12:07:31;96851.75;;;11.17;71.48
56142;BME280;42018;48.588;10.836;2022-12-24T12:10:23;96848.59;;;11.15;70.85
56142;BME280;42018;48.588;10.836;2022-12-24T12:13:19;96847.00;;;10.68;70.83
56142;BME280;42018;48.588;10.836;2022-12-24T12:16:15;96853.38;;;10.92;71.46
56142;BME280;42018;48.588;10.836;2022-12-24T12:19:04;96849.66;;;10.93;70.46
56142;BME280;42018;48.588;10.836;2022-12-24T12:21:53;96851.78;;;11.22;71.20
56142;BME280;42018;48.588;10.836;2022-12-24T12:24:43;96849.13;;;11.07;70.02
56142;BME280;42018;48.588;10.836;2022-12-24T12:27:31;96863.97;;;11.02;70.58
56142;BME280;42018;48.588;10.836;2022-12-24T12:30:20;96862.66;;;11.05;71.24
56142;BME280;42018;48.588;10.836;2022-12-24T12:35:59;96865.53;;;10.73;71.04
56142;BME280;42018;48.588;10.836;2022-12-24T12:38:45;96863.94;;;10.72;72.17
56142;BME280;42018;48.588;10.836;2022-12-24T12:41:53;96858.16;;;10.85;71.15
56142;BME280;42018;48.588;10.836;2022-12-24T12:48:17;96864.75;;;10.83;71.52
56142;BME280;42018;48.588;10.836;2022-12-24T12:51:14;96852.56;;;10.76;72.22
56142;BME280;42018;48.588;10.836;2022-12-24T12:57:31;96854.03;;;10.31;71.92
56142;BME280;42018;48.588;10.836;2022-12-24T13:00:19;96859.72;;;10.71;73.03
56142;BME280;42018;48.588;10.836;2022-12-24T13:06:31;96868.19;;;10.88;71.34
56142;BME280;42018;48.588;10.836;2022-12-24T13:09:50;96874.03;;;10.85;71.72
56142;BME280;42018;48.588;10.836;2022-12-24T13:13:01;96872.44;;;10.94;71.47
56142;BME280;42018;48.588;10.836;2022-12-24T13:19:22;96864.50;;;10.79;71.52
56142;BME280;42018;48.588;10.836;2022-12-24T13:22:14;96878.56;;;11.00;71.28
56142;BME280;42018;48.588;10.836;2022-12-24T13:25:01;96884.09;;;10.68;72.57
56142;BME280;42018;48.588;10.836;2022-12-24T13:27:47;96878.53;;;10.74;71.69
56142;BME280;42018;48.588;10.836;2022-12-24T13:30:41;96878.25;;;10.81;72.34
56142;BME280;42018;48.588;10.836;2022-12-24T13:36:21;96894.16;;;10.81;73.42
56142;BME280;42018;48.588;10.836;2022-12-24T13:39:18;96890.44;;;10.77;72.67
56142;BME280;42018;48.588;10.836;2022-12-24T13:42:05;96899.72;;;10.64;72.72
56142;BME280;42018;48.588;10.836;2022-12-24T13:48:26;96901.03;;;10.77;72.67
56142;BME280;42018;48.588;10.836;2022-12-24T13:51:18;96891.00;;;10.89;72.44
56142;BME280;42018;48.588;10.836;2022-12-24T13:54:10;96896.78;;;10.66;72.66
56142;BME280;42018;48.588;10.836;2022-12-24T13:56:58;96890.91;;;10.48;73.39
56142;BME280;42018;48.588;10.836;2022-12-24T13:59:44;96895.97;;;10.55;74.08
56142;BME280;42018;48.588;10.836;2022-12-24T14:02:34;96899.41;;;10.50;74.49
56142;BME280;42018;48.588;10.836;2022-12-24T14:05:35;96892.75;;;10.48;73.42
56142;BME280;42018;48.588;10.836;2022-12-24T14:16:49;96895.13;;;10.44;75.79
56142;BME280;42018;48.588;10.836;2022-12-24T14:19:45;96898.25;;;10.31;75.03
56142;BME280;42018;48.588;10.836;2022-12-24T14:22:44;96898.75;;;10.23;75.62
56142;BME280;42018;48.588;10.836;2022-12-24T14:25:30;96908.19;;;10.08;76.40
56142;BME280;42018;48.588;10.836;2022-12-24T14:28:18;96905.59;;;10.19;75.88
56142;BME280;42018;48.588;10.836;2022-12-24T14:31:14;96911.34;;;10.05;75.62
56142;BME280;42018;48.588;10.836;2022-12-24T14:34:10;96908.66;;;9.95;76.36
56142;BME280;42018;48.588;10.836;2022-12-24T14:36:58;96910.50;;;9.95;76.30
56142;BME280;42018;48.588;10.836;2022-12-24T14:39:47;96909.16;;;9.92;76.18
56142;BME280;42018;48.588;10.836;2022-12-24T14:42:57;96912.63;;;9.93;75.63
56142;BME280;42018;48.588;10.836;2022-12-24T14:45:49;96907.84;;;9.90;75.96
56142;BME280;42018;48.588;10.836;2022-12-24T14:48:47;96907.59;;;9.91;76.50
56142;BME280;42018;48.588;10.836;2022-12-24T14:54:46;96921.81;;;9.80;77.02
56142;BME280;42018;48.588;10.836;2022-12-24T14:57:31;96915.69;;;9.74;77.71
56142;BME280;42018;48.588;10.836;2022-12-24T15:00:19;96916.03;;;9.88;76.69
56142;BME280;42018;48.588;10.836;2022-12-24T15:03:11;96907.78;;;9.79;76.94
56142;BME280;42018;48.588;10.836;2022-12-24T15:06:01;96915.22;;;9.82;76.42
56142;BME280;42018;48.588;10.836;2022-12-24T15:08:48;96917.31;;;9.80;76.62
56142;BME280;42018;48.588;10.836;2022-12-24T15:11:34;96917.34;;;9.86;76.73
56142;BME280;42018;48.588;10.836;2022-12-24T15:14:21;96909.34;;;9.75;76.92
56142;BME280;42018;48.588;10.836;2022-12-24T15:17:11;96915.69;;;9.74;75.99
56142;BME280;42018;48.588;10.836;2022-12-24T15:19:56;96927.59;;;9.77;76.29
56142;BME280;42018;48.588;10.836;2022-12-24T15:22:44;96930.88;;;9.89;75.96
56142;BME280;42018;48.588;10.836;2022-12-24T15:25:31;96940.34;;;9.80;76.37
56142;BME280;42018;48.588;10.836;2022-12-24T15:28:17;96934.72;;;9.71;76.54
56142;BME280;42018;48.588;10.836;2022-12-24T15:31:14;96947.44;;;9.74;75.83
56142;BME280;42018;48.588;10.836;2022-12-24T15:34:00;96939.50;;;9.74;75.99
56142;BME280;42018;48.588;10.836;2022-12-24T15:36:46;96940.69;;;9.56;77.04
56142;BME280;42018;48.588;10.836;2022-12-24T15:39:32;96940.25;;;9.65;76.44
56142;BME280;42018;48.588;10.836;2022-12-24T15:42:19;96940.66;;;9.51;76.94
56142;BME280;42018;48.588;10.836;2022-12-24T15:45:38;96949.66;;;9.50;76.38
56142;BME280;42018;48.588;10.836;2022-12-24T15:48:27;96960.47;;;9.49;77.24
56142;BME280;42018;48.588;10.836;2022-12-24T15:51:20;96945.44;;;9.54;76.62
56142;BME280;42018;48.588;10.836;2022-12-24T15:54:12;96951.44;;;9.45;77.16
56142;BME280;42018;48.588;10.836;2022-12-24T15:57:30;96963.69;;;9.24;77.29
56142;BME280;42018;48.588;10.836;2022-12-24T16:00:24;96961.03;;;9.19;77.80
56142;BME280;42018;48.588;10.836;2022-12-24T16:03:19;96948.53;;;9.14;78.24
56142;BME280;42018;48.588;10.836;2022-12-24T16:06:08;96954.31;;;9.38;77.17
56142;BME280;42018;48.588;10.836;2022-12-24T16:08:55;96973.47;;;9.23;77.73
56142;BME280;42018;48.588;10.836;2022-12-24T16:11:41;96968.28;;;9.06;78.56
56142;BME280;42018;48.588;10.836;2022-12-24T16:14:26;96976.22;;;9.06;78.30
56142;BME280;42018;48.588;10.836;2022-12-24T16:17:24;96971.94;;;9.00;77.90
56142;BME280;42018;48.588;10.836;2022-12-24T16:20:18;96981.34;;;8.91;78.38
56142;BME280;42018;48.588;10.836;2022-12-24T16:23:04;96983.00;;;8.97;77.86